createdAt,value
2023-03-17T00:00:51.689Z,97762.72
2023-03-17T00:03:27.002Z,97761.06
2023-03-17T00:05:58.285Z,97769.31
2023-03-17T00:08:31.116Z,97759.25
2023-03-17T00:11:01.651Z,97753.94
2023-03-17T00:13:32.221Z,97758.31
2023-03-17T00:16:04.568Z,97747.31
2023-03-17T00:18:36.401Z,97751.66
2023-03-17T00:21:06.281Z,97755.72
2023-03-17T00:23:37.414Z,97759.25
2023-03-17T00:26:07.602Z,97757.16
2023-03-17T00:28:37.003Z,97761.53
2023-03-17T00:31:18.421Z,97750.69
2023-03-17T00:33:50.943Z,97748.22
2023-03-17T00:36:23.974Z,97737.06
2023-03-17T00:38:54.265Z,97749.22
2023-03-17T00:41:24.497Z,97755.34
2023-03-17T00:43:54.685Z,97752.91
2023-03-17T00:46:36.287Z,97746.41
2023-03-17T00:49:20.360Z,97735.25
2023-03-17T00:51:50.803Z,97732.66
2023-03-17T00:54:22.759Z,97727.47
2023-03-17T00:56:53.907Z,97722.78
2023-03-17T00:59:30.785Z,97717.13
2023-03-17T01:02:00.520Z,97715.34
2023-03-17T01:04:31.256Z,97718.56
2023-03-17T01:07:01.273Z,97718.75
2023-03-17T01:09:31.493Z,97710.78
2023-03-17T01:12:02.194Z,97721.75
2023-03-17T01:14:31.392Z,97725.03
2023-03-17T01:17:00.504Z,97736.81
2023-03-17T01:19:31.408Z,97731.66
2023-03-17T01:22:00.799Z,97722.44
2023-03-17T01:24:30.726Z,97728.25
2023-03-17T01:27:00.921Z,97727.59
2023-03-17T01:29:31.314Z,97721.63
2023-03-17T01:32:00.462Z,97715.94
2023-03-17T01:34:31.303Z,97731.47
2023-03-17T01:37:00.471Z,97718.66
2023-03-17T01:39:30.570Z,97712.69
2023-03-17T01:42:02.037Z,97709.13
2023-03-17T01:44:32.672Z,97691.97
2023-03-17T01:47:03.317Z,97687.63
2023-03-17T01:49:39.431Z,97683.44
2023-03-17T01:52:12.859Z,97680.63
2023-03-17T01:54:50.379Z,97692.91
2023-03-17T01:57:26.768Z,97700.31
2023-03-17T02:00:02.518Z,97703.84
2023-03-17T02:02:37.306Z,97701.56
2023-03-17T02:05:15.344Z,97704.03
2023-03-17T02:07:45.104Z,97694.63
2023-03-17T02:10:19.858Z,97692.88
2023-03-17T02:12:56.017Z,97685.56
2023-03-17T02:15:26.663Z,97687.63
2023-03-17T02:17:56.744Z,97688.47
2023-03-17T02:21:32.660Z,97680.84
2023-03-17T02:24:07.749Z,97678.44
2023-03-17T02:26:39.375Z,97668.66
2023-03-17T02:29:09.515Z,97680.13
2023-03-17T02:31:38.645Z,97676.25
2023-03-17T02:34:08.880Z,97678.19
2023-03-17T02:36:40.846Z,97684.00
2023-03-17T02:39:11.170Z,97683.22
2023-03-17T02:41:40.602Z,97683.84
2023-03-17T02:44:09.378Z,97676.09
2023-03-17T02:46:39.400Z,97673.50
2023-03-17T02:49:09.506Z,97677.22
2023-03-17T02:51:40.636Z,97676.56
2023-03-17T02:54:10.330Z,97672.66
2023-03-17T02:56:40.990Z,97670.38
2023-03-17T02:59:11.676Z,97655.84
2023-03-17T03:01:41.588Z,97660.34
2023-03-17T03:04:12.049Z,97664.88
2023-03-17T03:06:45.295Z,97652.06
2023-03-17T03:09:18.377Z,97657.69
2023-03-17T03:11:48.463Z,97652.84
2023-03-17T03:14:18.602Z,97653.16
2023-03-17T03:16:48.399Z,97658.28
2023-03-17T03:19:18.204Z,97650.81
2023-03-17T03:21:49.911Z,97664.53
2023-03-17T03:24:20.565Z,97678.97
2023-03-17T03:26:50.056Z,97680.53
2023-03-17T03:29:19.979Z,97678.88
2023-03-17T03:31:49.324Z,97684.38
2023-03-17T03:34:19.246Z,97681.28
2023-03-17T03:36:50.450Z,97669.16
2023-03-17T03:39:21.061Z,97666.06
2023-03-17T03:41:52.019Z,97668.78
2023-03-17T03:44:21.099Z,97664.38
2023-03-17T03:46:50.619Z,97657.59
2023-03-17T03:49:20.062Z,97663.28
2023-03-17T03:51:51.435Z,97668.59
2023-03-17T03:54:20.824Z,97670.00
2023-03-17T03:56:50.262Z,97668.69
2023-03-17T03:59:20.699Z,97665.72
2023-03-17T04:01:50.626Z,97681.22
2023-03-17T04:04:20.112Z,97680.25
2023-03-17T04:06:51.370Z,97675.41
2023-03-17T04:09:22.933Z,97674.41
2023-03-17T04:11:52.780Z,97673.78
2023-03-17T04:14:22.269Z,97669.56
2023-03-17T04:16:51.650Z,97674.59
2023-03-17T04:19:21.644Z,97684.91
2023-03-17T04:21:54.688Z,97678.94
2023-03-17T04:24:23.763Z,97670.38
2023-03-17T04:26:53.275Z,97672.13
2023-03-17T04:29:22.336Z,97665.38
2023-03-17T04:31:52.487Z,97659.69
2023-03-17T04:34:22.149Z,97666.63
2023-03-17T04:36:54.672Z,97675.75
2023-03-17T04:39:24.682Z,97676.88
2023-03-17T04:41:55.710Z,97677.16
2023-03-17T04:44:25.744Z,97678.81
2023-03-17T04:46:56.354Z,97681.38
2023-03-17T04:49:27.224Z,97694.28
2023-03-17T04:51:58.603Z,97680.69
2023-03-17T04:54:29.399Z,97678.13
2023-03-17T04:56:58.798Z,97678.81
2023-03-17T04:59:28.178Z,97676.66
2023-03-17T05:01:58.179Z,97673.94
2023-03-17T05:04:31.596Z,97667.16
2023-03-17T05:07:04.138Z,97670.03
2023-03-17T05:09:34.077Z,97673.25
2023-03-17T05:12:05.046Z,97665.81
2023-03-17T05:14:34.458Z,97670.03
2023-03-17T05:17:04.697Z,97673.19
2023-03-17T05:19:33.654Z,97666.69
2023-03-17T05:22:04.852Z,97659.91
2023-03-17T05:24:35.496Z,97663.16
2023-03-17T05:27:06.093Z,97652.56
2023-03-17T05:29:35.150Z,97662.88
2023-03-17T05:32:04.868Z,97660.44
2023-03-17T05:34:34.824Z,97661.25
2023-03-17T05:37:05.136Z,97661.25
2023-03-17T05:39:34.480Z,97669.00
2023-03-17T05:42:04.761Z,97673.47
2023-03-17T05:44:34.109Z,97675.53
2023-03-17T05:47:04.258Z,97672.59
2023-03-17T05:49:35.261Z,97674.34
2023-03-17T05:52:06.847Z,97670.81
2023-03-17T05:54:37.576Z,97674.50
2023-03-17T05:57:07.840Z,97673.72
2023-03-17T05:59:38.661Z,97676.94
2023-03-17T06:02:09.374Z,97674.06
2023-03-17T06:04:39.570Z,97675.41
2023-03-17T06:07:10.576Z,97677.03
2023-03-17T06:09:40.152Z,97683.53
2023-03-17T06:12:11.861Z,97671.28
2023-03-17T06:14:41.961Z,97681.31
2023-03-17T06:17:13.169Z,97677.59
2023-03-17T06:19:42.414Z,97673.25
2023-03-17T06:22:14.417Z,97681.50
2023-03-17T06:24:46.609Z,97668.47
2023-03-17T06:27:17.017Z,97677.97
2023-03-17T06:29:47.722Z,97676.06
2023-03-17T06:32:20.775Z,97679.31
2023-03-17T06:34:50.786Z,97678.19
2023-03-17T06:37:21.408Z,97676.78
2023-03-17T06:39:52.228Z,97673.94
2023-03-17T06:42:22.266Z,97688.97
2023-03-17T06:44:53.258Z,97681.59
2023-03-17T06:47:25.449Z,97682.91
2023-03-17T06:49:55.472Z,97682.44
2023-03-17T06:52:27.092Z,97688.13
2023-03-17T06:54:57.545Z,97677.66
2023-03-17T06:57:27.637Z,97677.50
2023-03-17T06:59:57.116Z,97668.50
2023-03-17T07:02:27.543Z,97672.53
2023-03-17T07:04:58.737Z,97672.09
2023-03-17T07:07:30.317Z,97679.53
2023-03-17T07:10:00.239Z,97676.66
2023-03-17T07:12:30.397Z,97675.38
2023-03-17T07:15:00.179Z,97670.91
2023-03-17T07:17:30.764Z,97672.22
2023-03-17T07:20:01.792Z,97676.09
2023-03-17T07:22:33.064Z,97670.78
2023-03-17T07:25:03.209Z,97666.25
2023-03-17T07:27:33.842Z,97671.28
2023-03-17T07:30:05.581Z,97668.25
2023-03-17T07:32:36.885Z,97677.47
2023-03-17T07:35:09.019Z,97672.66
2023-03-17T07:37:40.124Z,97672.19
2023-03-17T07:40:12.799Z,97676.09
2023-03-17T07:42:43.555Z,97673.34
2023-03-17T07:45:13.667Z,97679.69
2023-03-17T07:47:44.243Z,97679.25
2023-03-17T07:50:15.986Z,97674.41
2023-03-17T07:52:48.179Z,97692.03
2023-03-17T07:55:17.993Z,97695.78
2023-03-17T07:57:47.238Z,97693.88
2023-03-17T08:00:18.573Z,97688.06
2023-03-17T08:03:03.218Z,97688.25
2023-03-17T08:05:38.819Z,97678.09
2023-03-17T08:08:11.247Z,97685.88
2023-03-17T08:10:40.935Z,97693.16
2023-03-17T08:13:10.521Z,97679.75
2023-03-17T08:15:40.487Z,97675.56
2023-03-17T08:18:10.707Z,97670.72
2023-03-17T08:20:41.360Z,97677.84
2023-03-17T08:23:11.952Z,97668.50
2023-03-17T08:25:41.003Z,97666.22
2023-03-17T08:28:11.703Z,97655.25
2023-03-17T08:30:43.073Z,97650.22
2023-03-17T08:33:14.147Z,97648.75
2023-03-17T08:35:44.246Z,97647.94
2023-03-17T08:38:15.657Z,97637.94
2023-03-17T08:40:46.429Z,97640.00
2023-03-17T08:43:17.190Z,97631.59
2023-03-17T08:45:48.820Z,97629.47
2023-03-17T08:48:20.158Z,97630.63
2023-03-17T08:50:50.410Z,97615.38
2023-03-17T08:53:22.645Z,97615.69
2023-03-17T08:55:52.105Z,97614.41
2023-03-17T08:58:22.275Z,97611.13
2023-03-17T09:00:53.128Z,97609.84
2023-03-17T09:03:23.253Z,97608.53
2023-03-17T09:05:54.189Z,97619.19
2023-03-17T09:08:26.543Z,97616.59
2023-03-17T09:10:56.186Z,97605.88
2023-03-17T09:13:26.330Z,97610.38
2023-03-17T09:15:56.729Z,97615.72
2023-03-17T09:18:27.041Z,97610.72
2023-03-17T09:20:56.552Z,97616.19
2023-03-17T09:23:28.519Z,97621.53
2023-03-17T09:25:57.760Z,97607.84
2023-03-17T09:28:27.978Z,97615.16
2023-03-17T09:31:01.936Z,97612.88
2023-03-17T09:33:32.012Z,97613.97
2023-03-17T09:36:03.341Z,97612.66
2023-03-17T09:38:34.422Z,97617.97
2023-03-17T09:41:32.562Z,97614.66
2023-03-17T09:44:17.939Z,97608.47
2023-03-17T09:47:03.042Z,97612.16
2023-03-17T09:49:45.430Z,97596.69
2023-03-17T09:52:19.280Z,97602.19
2023-03-17T09:54:52.029Z,97607.31
2023-03-17T09:57:31.725Z,97605.00
2023-03-17T10:00:08.010Z,97613.72
2023-03-17T10:02:40.081Z,97617.41
2023-03-17T10:05:21.180Z,97599.16
2023-03-17T10:08:01.983Z,97606.88
2023-03-17T10:10:44.107Z,97592.97
2023-03-17T10:13:30.304Z,97587.09
2023-03-17T10:16:10.617Z,97586.38
2023-03-17T10:18:51.177Z,97592.50
2023-03-17T10:21:27.679Z,97594.22
2023-03-17T10:23:59.385Z,97583.91
2023-03-17T10:26:40.465Z,97588.03
2023-03-17T10:29:18.132Z,97579.16
2023-03-17T10:31:47.640Z,97577.44
2023-03-17T10:34:20.150Z,97570.34
2023-03-17T10:36:52.006Z,97568.44
2023-03-17T10:39:25.428Z,97564.56
2023-03-17T10:42:00.212Z,97561.03
2023-03-17T10:44:43.673Z,97564.97
2023-03-17T10:47:33.257Z,97568.91
2023-03-17T10:50:21.494Z,97554.81
2023-03-17T10:52:59.195Z,97553.31
2023-03-17T10:55:34.868Z,97560.81
2023-03-17T10:58:15.497Z,97564.91
2023-03-17T11:00:57.332Z,97565.41
2023-03-17T11:03:31.056Z,97561.47
2023-03-17T11:06:05.143Z,97548.28
2023-03-17T11:08:37.073Z,97545.38
2023-03-17T11:11:10.378Z,97535.59
2023-03-17T11:13:41.515Z,97530.84
2023-03-17T11:16:23.382Z,97524.50
2023-03-17T11:18:59.183Z,97526.75
2023-03-17T11:21:34.649Z,97521.78
2023-03-17T11:24:10.583Z,97516.63
2023-03-17T11:26:57.543Z,97504.63
2023-03-17T11:29:52.542Z,97508.69
2023-03-17T11:32:37.835Z,97503.06
2023-03-17T11:35:45.410Z,97496.88
2023-03-17T11:38:26.546Z,97503.53
2023-03-17T11:41:36.524Z,97500.13
2023-03-17T11:45:03.831Z,97504.19
2023-03-17T11:48:24.296Z,97495.97
2023-03-17T11:51:01.245Z,97500.19
2023-03-17T11:54:15.180Z,97495.16
2023-03-17T11:56:51.659Z,97496.75
2023-03-17T11:59:36.017Z,97494.97
2023-03-17T12:02:22.112Z,97490.13
2023-03-17T12:04:57.839Z,97487.13
2023-03-17T12:07:34.311Z,97485.09
2023-03-17T12:10:17.203Z,97481.66
2023-03-17T12:12:54.754Z,97484.63
2023-03-17T12:15:34.733Z,97477.00
2023-03-17T12:18:15.020Z,97486.22
2023-03-17T12:20:54.810Z,97479.78
2023-03-17T12:23:38.772Z,97474.28
2023-03-17T12:26:14.429Z,97472.44
2023-03-17T12:28:52.260Z,97461.31
2023-03-17T12:31:29.803Z,97451.41
2023-03-17T12:34:07.954Z,97446.94
2023-03-17T12:36:39.770Z,97441.44
2023-03-17T12:39:14.539Z,97438.00
2023-03-17T12:42:14.190Z,97447.63
2023-03-17T12:45:33.149Z,97441.53
2023-03-17T12:48:41.789Z,97437.47
2023-03-17T12:51:42.126Z,97422.50
2023-03-17T12:54:20.732Z,97433.75
2023-03-17T12:56:53.280Z,97431.31
2023-03-17T12:59:27.194Z,97430.06
2023-03-17T13:02:00.220Z,97439.88
2023-03-17T13:04:36.100Z,97438.63
2023-03-17T13:07:16.203Z,97430.31
2023-03-17T13:09:49.860Z,97433.53
2023-03-17T13:13:06.414Z,97437.50
2023-03-17T13:15:58.879Z,97432.41
2023-03-17T13:19:14.073Z,97430.75
2023-03-17T13:21:47.852Z,97416.38
2023-03-17T13:24:51.640Z,97419.19
2023-03-17T13:27:49.781Z,97419.94
2023-03-17T13:31:10.796Z,97411.06
2023-03-17T13:33:46.554Z,97420.75
2023-03-17T13:36:44.054Z,97413.25
2023-03-17T13:39:53.971Z,97404.75
2023-03-17T13:42:49.683Z,97406.78
2023-03-17T13:45:38.976Z,97404.75
2023-03-17T13:48:34.740Z,97404.91
2023-03-17T13:51:19.169Z,97397.81
2023-03-17T13:53:56.369Z,97393.16
2023-03-17T13:56:47.347Z,97399.81
2023-03-17T13:59:18.570Z,97390.69
2023-03-17T14:01:58.307Z,97394.13
2023-03-17T14:04:34.570Z,97402.81
2023-03-17T14:07:18.643Z,97404.19
2023-03-17T14:09:53.114Z,97408.78
2023-03-17T14:12:30.614Z,97401.13
2023-03-17T14:15:08.476Z,97405.16
2023-03-17T14:17:49.619Z,97399.00
2023-03-17T14:20:26.179Z,97389.06
2023-03-17T14:22:58.266Z,97394.69
2023-03-17T14:25:34.464Z,97398.94
2023-03-17T14:28:11.369Z,97406.69
2023-03-17T14:30:41.245Z,97392.22
2023-03-17T14:33:25.272Z,97392.78
2023-03-17T14:35:58.521Z,97384.91
2023-03-17T14:38:32.077Z,97399.22
2023-03-17T14:41:06.923Z,97395.22
2023-03-17T14:43:37.961Z,97396.00
2023-03-17T14:46:15.475Z,97401.63
2023-03-17T14:48:48.637Z,97396.59
2023-03-17T14:51:31.101Z,97402.44
2023-03-17T14:54:04.203Z,97402.06
2023-03-17T14:56:38.685Z,97412.13
2023-03-17T14:59:19.643Z,97415.56
2023-03-17T15:01:49.481Z,97408.69
2023-03-17T15:04:24.370Z,97401.63
2023-03-17T15:06:56.950Z,97404.47
2023-03-17T15:09:31.614Z,97402.84
2023-03-17T15:12:09.507Z,97392.34
2023-03-17T15:14:42.741Z,97390.97
2023-03-17T15:17:21.200Z,97384.09
2023-03-17T15:19:54.404Z,97389.59
2023-03-17T15:22:26.288Z,97397.47
2023-03-17T15:25:03.783Z,97385.59
2023-03-17T15:27:33.423Z,97383.41
2023-03-17T15:30:03.877Z,97390.47
2023-03-17T15:32:32.990Z,97390.13
2023-03-17T15:35:02.490Z,97380.41
2023-03-17T15:37:35.123Z,97385.88
2023-03-17T15:40:09.430Z,97379.03
2023-03-17T15:42:41.390Z,97384.50
2023-03-17T15:45:16.215Z,97383.69
2023-03-17T15:47:48.974Z,97381.28
2023-03-17T15:50:24.221Z,97380.13
2023-03-17T15:52:56.468Z,97376.91
2023-03-17T15:55:29.802Z,97379.34
2023-03-17T15:58:00.373Z,97365.84
2023-03-17T16:00:34.011Z,97370.06
2023-03-17T16:03:17.906Z,97367.66
2023-03-17T16:05:47.910Z,97374.94
2023-03-17T16:08:18.016Z,97376.38
2023-03-17T16:10:47.870Z,97374.41
2023-03-17T16:13:17.828Z,97377.47
2023-03-17T16:15:56.946Z,97375.88
2023-03-17T16:18:34.606Z,97388.41
2023-03-17T16:21:04.896Z,97384.03
2023-03-17T16:23:37.671Z,97387.09
2023-03-17T16:26:15.666Z,97392.78
2023-03-17T16:28:48.191Z,97387.34
2023-03-17T16:31:40.933Z,97394.28
2023-03-17T16:34:18.257Z,97385.91
2023-03-17T16:36:47.505Z,97386.31
2023-03-17T16:39:19.625Z,97389.38
2023-03-17T16:41:50.412Z,97390.03
2023-03-17T16:44:22.193Z,97389.06
2023-03-17T16:46:54.266Z,97390.72
2023-03-17T16:49:26.258Z,97390.94
2023-03-17T16:51:55.817Z,97396.03
2023-03-17T16:54:25.895Z,97398.72
2023-03-17T16:56:55.366Z,97408.03
2023-03-17T16:59:31.767Z,97412.28
2023-03-17T17:02:02.439Z,97408.50
2023-03-17T17:04:35.121Z,97403.66
2023-03-17T17:07:04.143Z,97409.94
2023-03-17T17:09:33.743Z,97407.13
2023-03-17T17:12:03.343Z,97409.97
2023-03-17T17:14:33.440Z,97403.75
2023-03-17T17:17:05.157Z,97419.91
2023-03-17T17:19:34.794Z,97415.09
2023-03-17T17:22:04.276Z,97411.50
2023-03-17T17:24:33.288Z,97419.97
2023-03-17T17:27:03.344Z,97424.03
2023-03-17T17:29:32.457Z,97427.06
2023-03-17T17:32:03.998Z,97435.34
2023-03-17T17:34:33.032Z,97442.41
2023-03-17T17:37:03.376Z,97436.56
2023-03-17T17:39:33.393Z,97441.41
2023-03-17T17:42:02.699Z,97443.63
2023-03-17T17:44:32.605Z,97452.69
2023-03-17T17:47:03.328Z,97454.72
2023-03-17T17:49:32.358Z,97461.97
2023-03-17T17:52:02.462Z,97457.16
2023-03-17T17:54:32.054Z,97451.53
2023-03-17T17:57:01.655Z,97448.75
2023-03-17T17:59:30.565Z,97460.41
2023-03-17T18:02:00.609Z,97450.34
2023-03-17T18:04:30.595Z,97449.78
2023-03-17T18:06:59.030Z,97458.03
2023-03-17T18:09:29.864Z,97466.09
2023-03-17T18:12:00.137Z,97474.97
2023-03-17T18:14:29.749Z,97474.78
2023-03-17T18:16:59.823Z,97465.53
2023-03-17T18:19:30.776Z,97464.09
2023-03-17T18:22:00.201Z,97467.53
2023-03-17T18:24:30.898Z,97472.38
2023-03-17T18:27:00.406Z,97476.03
2023-03-17T18:29:30.505Z,97474.81
2023-03-17T18:32:01.203Z,97481.06
2023-03-17T18:34:36.468Z,97471.00
2023-03-17T18:37:07.613Z,97471.41
2023-03-17T18:39:38.416Z,97480.66
2023-03-17T18:42:09.606Z,97481.09
2023-03-17T18:44:41.565Z,97485.91
2023-03-17T18:47:11.146Z,97488.72
2023-03-17T18:49:41.528Z,97480.69
2023-03-17T18:52:11.871Z,97488.72
2023-03-17T18:54:41.433Z,97484.72
2023-03-17T18:57:10.048Z,97486.72
2023-03-17T18:59:40.598Z,97487.50
2023-03-17T19:02:09.842Z,97480.28
2023-03-17T19:04:39.563Z,97487.53
2023-03-17T19:07:09.950Z,97481.09
2023-03-17T19:09:39.810Z,97485.91
2023-03-17T19:12:09.892Z,97486.13
2023-03-17T19:14:41.187Z,97486.72
2023-03-17T19:17:10.370Z,97482.69
2023-03-17T19:19:41.402Z,97481.31
2023-03-17T19:22:13.033Z,97480.91
2023-03-17T19:24:43.270Z,97487.13
2023-03-17T19:27:12.288Z,97487.94
2023-03-17T19:29:42.276Z,97490.72
2023-03-17T19:32:12.428Z,97487.53
2023-03-17T19:34:41.950Z,97496.75
2023-03-17T19:37:12.781Z,97492.75
2023-03-17T19:39:44.284Z,97488.31
2023-03-17T19:42:13.317Z,97503.38
2023-03-17T19:44:45.021Z,97502.78
2023-03-17T19:47:14.501Z,97501.19
2023-03-17T19:49:43.067Z,97496.34
2023-03-17T19:52:13.963Z,97502.56
2023-03-17T19:54:46.519Z,97506.19
2023-03-17T19:57:17.430Z,97500.94
2023-03-17T19:59:47.203Z,97505.59
2023-03-17T20:02:17.727Z,97507.59
2023-03-17T20:04:46.817Z,97511.22
2023-03-17T20:07:17.696Z,97512.22
2023-03-17T20:09:48.609Z,97513.19
2023-03-17T20:12:17.117Z,97510.00
2023-03-17T20:14:49.524Z,97516.22
2023-03-17T20:17:19.605Z,97503.38
2023-03-17T20:19:49.719Z,97517.59
2023-03-17T20:22:20.133Z,97514.41
2023-03-17T20:24:49.700Z,97507.09
2023-03-17T20:27:19.754Z,97508.72
2023-03-17T20:29:48.803Z,97503.91
2023-03-17T20:32:18.150Z,97505.53
2023-03-17T20:34:47.299Z,97508.31
2023-03-17T20:37:15.756Z,97499.88
2023-03-17T20:39:46.546Z,97509.53
2023-03-17T20:42:16.119Z,97507.91
2023-03-17T20:44:46.131Z,97513.13
2023-03-17T20:47:15.692Z,97518.34
2023-03-17T20:49:48.233Z,97520.16
2023-03-17T20:52:18.324Z,97521.97
2023-03-17T20:54:49.766Z,97522.16
2023-03-17T20:57:19.645Z,97522.16
2023-03-17T20:59:49.179Z,97525.59
2023-03-17T21:02:21.572Z,97519.56
2023-03-17T21:04:50.741Z,97520.56
2023-03-17T21:07:22.316Z,97524.16
2023-03-17T21:09:56.480Z,97522.75
2023-03-17T21:12:26.266Z,97529.78
2023-03-17T21:14:55.120Z,97542.03
2023-03-17T21:17:24.730Z,97539.63
2023-03-17T21:19:54.649Z,97535.22
2023-03-17T21:22:24.588Z,97543.22
2023-03-17T21:24:55.514Z,97541.59
2023-03-17T21:27:25.063Z,97552.69
2023-03-17T21:29:55.151Z,97545.25
2023-03-17T21:32:24.910Z,97555.69
2023-03-17T21:34:55.145Z,97550.66
2023-03-17T21:37:24.565Z,97545.63
2023-03-17T21:39:55.213Z,97552.44
2023-03-17T21:42:25.885Z,97560.28
2023-03-17T21:44:55.864Z,97558.47
2023-03-17T21:47:25.274Z,97558.69
2023-03-17T21:49:54.267Z,97562.91
2023-03-17T21:52:23.180Z,97563.28
2023-03-17T21:54:53.936Z,97569.13
2023-03-17T21:57:24.621Z,97573.72
2023-03-17T21:59:53.129Z,97563.28
2023-03-17T22:02:23.145Z,97573.72
2023-03-17T22:04:52.310Z,97581.16
2023-03-17T22:07:22.285Z,97577.72
2023-03-17T22:09:55.536Z,97576.13
2023-03-17T22:12:26.105Z,97577.94
2023-03-17T22:14:59.172Z,97585.94
2023-03-17T22:17:29.223Z,97591.38
2023-03-17T22:19:58.504Z,97597.41
2023-03-17T22:22:28.831Z,97600.81
2023-03-17T22:24:59.377Z,97600.81
2023-03-17T22:27:30.311Z,97604.44
2023-03-17T22:29:59.452Z,97602.00
2023-03-17T22:32:28.426Z,97605.59
2023-03-17T22:34:57.404Z,97608.59
2023-03-17T22:37:28.570Z,97609.63
2023-03-17T22:40:02.320Z,97609.00
2023-03-17T22:42:33.236Z,97619.00
2023-03-17T22:45:02.850Z,97624.22
2023-03-17T22:47:33.632Z,97628.63
2023-03-17T22:50:03.247Z,97632.69
2023-03-17T22:52:32.722Z,97627.66
2023-03-17T22:55:01.345Z,97630.25
2023-03-17T22:57:32.482Z,97629.66
2023-03-17T23:00:02.716Z,97630.66
2023-03-17T23:02:32.232Z,97626.41
2023-03-17T23:05:01.955Z,97626.63
2023-03-17T23:07:44.300Z,97627.41
2023-03-17T23:10:23.559Z,97626.97
2023-03-17T23:12:54.779Z,97626.19
2023-03-17T23:15:25.449Z,97628.19
2023-03-17T23:17:54.502Z,97642.84
2023-03-17T23:20:24.373Z,97648.06
2023-03-17T23:22:54.177Z,97646.28
2023-03-17T23:25:24.536Z,97649.88
2023-03-17T23:27:55.383Z,97660.47
2023-03-17T23:30:25.415Z,97659.50
2023-03-17T23:32:55.661Z,97651.88
2023-03-17T23:35:24.725Z,97656.28
2023-03-17T23:37:54.376Z,97653.03
2023-03-17T23:40:25.126Z,97656.66
2023-03-17T23:42:56.464Z,97657.66
2023-03-17T23:45:26.623Z,97668.28
2023-03-17T23:47:58.044Z,97662.28
2023-03-17T23:50:27.449Z,97664.88
2023-03-17T23:52:56.957Z,97664.88
2023-03-17T23:55:26.678Z,97672.72
2023-03-17T23:57:57.106Z,97666.69
